JAL44 EGLL-RJTT
Flight info
| Callsign | JAL44 |
|---|---|
| Flight time | 14h 43m |
| Altitude | 34000 |
| Route | ULTIB T420 TNT UN57 POL UN601 RIBEL DCT LORTA DCT NALAN/M085F340 DCT 65N010W 74N020W 80N040W 82N060W/N0498F340 82N080W 82N100W 81N120W DCT OMEKA DCT JUJXI/N0496F360 DCT MARCC R338 NATES/N0494F380 R220 NOGAL/N0484F390 R220 NODAN/N0483F400 R220 NANAC Y810 AKRIT Y807 POLIX |
| Aircraft | A35K/H-SDE2E3GHIJ3J4J5LM1ORWXY/LB1D1 |
Departure
| Time | 2026-04-30 20:50 |
|---|---|
| Airport | London Heathrow Airport (EGLL) |
Arrival
| Time | 2026-05-01 11:34 |
|---|---|
| Airport | Tokyo Haneda International Airport (RJTT) |
| Time | Latitude | Longitude | Altitude | Speed | Heading |
|---|---|---|---|---|---|
| 2026-04-30 20:20 | 51.47156 | -0.46208 | 95 ft | 0 kts | 55° |
| 2026-04-30 20:33 | 51.47133 | -0.46259 | 104 ft | 3 kts | 40° |
| 2026-04-30 20:33 | 51.47118 | -0.46276 | 95 ft | 3 kts | 11° |
| 2026-04-30 20:34 | 51.47086 | -0.46259 | 94 ft | 3 kts | 325° |
| 2026-04-30 20:34 | 51.47073 | -0.46244 | 93 ft | 12 kts | 325° |
| 2026-04-30 20:38 | 51.47075 | -0.46247 | 92 ft | 2 kts | 326° |
| 2026-04-30 20:38 | 51.47098 | -0.46270 | 95 ft | 6 kts | 328° |
| 2026-04-30 20:39 | 51.47206 | -0.46392 | 97 ft | 11 kts | 324° |
| 2026-04-30 20:39 | 51.47237 | -0.46488 | 95 ft | 10 kts | 274° |
| 2026-04-30 20:39 | 51.47238 | -0.46598 | 92 ft | 10 kts | 270° |
| 2026-04-30 20:40 | 51.47238 | -0.46776 | 92 ft | 11 kts | 269° |
| 2026-04-30 20:40 | 51.47205 | -0.46863 | 95 ft | 9 kts | 192° |
| 2026-04-30 20:40 | 51.47142 | -0.46867 | 92 ft | 9 kts | 181° |
| 2026-04-30 20:41 | 51.47008 | -0.46866 | 92 ft | 10 kts | 180° |
| 2026-04-30 20:41 | 51.46936 | -0.46866 | 92 ft | 11 kts | 180° |
| 2026-04-30 20:41 | 51.46866 | -0.46865 | 92 ft | 8 kts | 179° |
| 2026-04-30 20:41 | 51.46856 | -0.46864 | 92 ft | 0 kts | 179° |
| 2026-04-30 20:42 | 51.46855 | -0.46864 | 92 ft | 1 kts | 179° |
| 2026-04-30 20:42 | 51.46801 | -0.46864 | 95 ft | 8 kts | 179° |
| 2026-04-30 20:43 | 51.46737 | -0.46863 | 95 ft | 10 kts | 180° |
| 2026-04-30 20:43 | 51.46673 | -0.46881 | 96 ft | 9 kts | 220° |
| 2026-04-30 20:43 | 51.46658 | -0.46967 | 96 ft | 8 kts | 265° |
| 2026-04-30 20:44 | 51.46655 | -0.47168 | 95 ft | 10 kts | 269° |
| 2026-04-30 20:44 | 51.46655 | -0.47280 | 95 ft | 10 kts | 270° |
| 2026-04-30 20:44 | 51.46654 | -0.47524 | 92 ft | 12 kts | 269° |
| 2026-04-30 20:45 | 51.46654 | -0.47722 | 92 ft | 13 kts | 270° |
| 2026-04-30 20:45 | 51.46653 | -0.47865 | 92 ft | 13 kts | 270° |
| 2026-04-30 20:45 | 51.46653 | -0.48011 | 92 ft | 13 kts | 270° |
| 2026-04-30 20:46 | 51.46653 | -0.48089 | 93 ft | 5 kts | 270° |
| 2026-04-30 20:46 | 51.46653 | -0.48171 | 93 ft | 10 kts | 270° |
| 2026-04-30 20:47 | 51.46651 | -0.48421 | 93 ft | 12 kts | 269° |
| 2026-04-30 20:47 | 51.46651 | -0.48556 | 93 ft | 12 kts | 270° |
| 2026-04-30 20:48 | 51.46620 | -0.48750 | 96 ft | 0 kts | 210° |
| 2026-04-30 20:48 | 51.46613 | -0.48756 | 95 ft | 3 kts | 207° |
| 2026-04-30 20:48 | 51.46577 | -0.48776 | 95 ft | 7 kts | 194° |
| 2026-04-30 20:48 | 51.46516 | -0.48775 | 94 ft | 9 kts | 159° |
| 2026-04-30 20:49 | 51.46482 | -0.48695 | 96 ft | 9 kts | 99° |
| 2026-04-30 20:49 | 51.46480 | -0.48538 | 94 ft | 26 kts | 90° |
| 2026-04-30 20:49 | 51.46480 | -0.47896 | 93 ft | 90 kts | 90° |
| 2026-04-30 20:50 | 51.46496 | -0.44667 | 240 ft | 185 kts | 88° |
| 2026-04-30 20:50 | 51.46683 | -0.42687 | 1194 ft | 174 kts | 72° |
| 2026-04-30 20:50 | 51.47316 | -0.41013 | 1900 ft | 180 kts | 60° |
| 2026-04-30 20:50 | 51.48143 | -0.39389 | 2097 ft | 197 kts | 57° |
| 2026-04-30 20:51 | 51.49081 | -0.37652 | 2193 ft | 215 kts | 56° |
| 2026-04-30 20:51 | 51.51171 | -0.33723 | 2499 ft | 248 kts | 60° |
| 2026-04-30 20:51 | 51.51980 | -0.31275 | 2831 ft | 250 kts | 73° |
| 2026-04-30 20:52 | 51.52588 | -0.28651 | 3350 ft | 252 kts | 76° |
| 2026-04-30 20:52 | 51.53220 | -0.25996 | 3833 ft | 259 kts | 69° |
| 2026-04-30 20:52 | 51.56101 | -0.22357 | 4716 ft | 283 kts | 10° |
| 2026-04-30 20:53 | 51.57907 | -0.22414 | 5253 ft | 283 kts | 351° |
| 2026-04-30 20:53 | 51.59837 | -0.23011 | 5884 ft | 283 kts | 348° |
| 2026-04-30 20:53 | 51.61735 | -0.23844 | 6398 ft | 285 kts | 337° |
| 2026-04-30 20:54 | 51.65216 | -0.27001 | 7382 ft | 290 kts | 328° |
| 2026-04-30 20:54 | 51.66946 | -0.28710 | 7823 ft | 294 kts | 328° |
| 2026-04-30 20:54 | 51.68677 | -0.30410 | 8303 ft | 297 kts | 328° |
| 2026-04-30 20:55 | 51.72242 | -0.33888 | 9304 ft | 302 kts | 328° |
| 2026-04-30 20:55 | 51.74057 | -0.35648 | 9809 ft | 305 kts | 328° |
| 2026-04-30 20:55 | 51.75886 | -0.37418 | 10297 ft | 308 kts | 328° |
| 2026-04-30 20:56 | 51.79701 | -0.41108 | 10688 ft | 333 kts | 328° |
| 2026-04-30 20:56 | 51.81725 | -0.43067 | 10902 ft | 345 kts | 328° |
| 2026-04-30 20:56 | 51.85998 | -0.47210 | 11291 ft | 370 kts | 328° |
| 2026-04-30 20:57 | 51.88240 | -0.49389 | 11475 ft | 382 kts | 328° |
| 2026-04-30 20:57 | 51.90551 | -0.51636 | 11658 ft | 393 kts | 328° |
| 2026-04-30 20:57 | 51.92920 | -0.53945 | 11825 ft | 403 kts | 328° |
| 2026-04-30 20:58 | 51.97811 | -0.58718 | 12435 ft | 415 kts | 328° |
| 2026-04-30 20:58 | 52.00292 | -0.61144 | 12820 ft | 418 kts | 328° |
| 2026-04-30 20:58 | 52.02788 | -0.63589 | 13212 ft | 421 kts | 328° |
| 2026-04-30 20:58 | 52.05303 | -0.66055 | 13598 ft | 424 kts | 328° |
| 2026-04-30 20:59 | 52.10387 | -0.71051 | 14339 ft | 429 kts | 328° |
| 2026-04-30 20:59 | 52.12947 | -0.73572 | 14689 ft | 432 kts | 328° |
| 2026-04-30 21:00 | 52.18113 | -0.78662 | 15441 ft | 436 kts | 328° |
| 2026-04-30 21:00 | 52.23321 | -0.83819 | 16194 ft | 440 kts | 328° |
| 2026-04-30 21:01 | 52.28582 | -0.89035 | 16930 ft | 445 kts | 328° |
| 2026-04-30 21:01 | 52.31230 | -0.91668 | 17303 ft | 447 kts | 328° |
| 2026-04-30 21:01 | 52.36565 | -0.96988 | 17990 ft | 452 kts | 328° |
| 2026-04-30 21:02 | 52.39251 | -0.99672 | 18348 ft | 454 kts | 328° |
| 2026-04-30 21:02 | 52.41958 | -1.02380 | 18669 ft | 456 kts | 328° |
| 2026-04-30 21:02 | 52.43754 | -1.04180 | 18834 ft | 458 kts | 328° |
| 2026-04-30 21:02 | 52.46484 | -1.06917 | 19109 ft | 460 kts | 328° |
| 2026-04-30 21:03 | 52.49221 | -1.09665 | 19389 ft | 463 kts | 328° |
| 2026-04-30 21:03 | 52.51972 | -1.12423 | 19650 ft | 465 kts | 328° |
| 2026-04-30 21:03 | 52.54738 | -1.15208 | 19953 ft | 467 kts | 328° |
| 2026-04-30 21:03 | 52.57517 | -1.18007 | 20242 ft | 469 kts | 328° |
| 2026-04-30 21:04 | 52.60309 | -1.20823 | 20539 ft | 472 kts | 328° |
| 2026-04-30 21:04 | 52.63107 | -1.23653 | 20828 ft | 474 kts | 327° |
| 2026-04-30 21:04 | 52.68751 | -1.29377 | 21444 ft | 479 kts | 327° |
| 2026-04-30 21:05 | 52.71594 | -1.32263 | 21767 ft | 481 kts | 327° |
| 2026-04-30 21:05 | 52.74449 | -1.35165 | 22209 ft | 483 kts | 327° |
| 2026-04-30 21:05 | 52.77221 | -1.37993 | 22498 ft | 485 kts | 327° |
| 2026-04-30 21:05 | 52.80101 | -1.40937 | 22836 ft | 488 kts | 327° |
| 2026-04-30 21:06 | 52.82991 | -1.43896 | 23148 ft | 490 kts | 327° |
| 2026-04-30 21:06 | 52.85899 | -1.46878 | 23454 ft | 493 kts | 327° |
| 2026-04-30 21:06 | 52.88812 | -1.49869 | 23763 ft | 495 kts | 327° |
| 2026-04-30 21:06 | 52.91752 | -1.52891 | 24032 ft | 497 kts | 327° |
| 2026-04-30 21:07 | 52.94696 | -1.55923 | 24299 ft | 499 kts | 327° |
| 2026-04-30 21:07 | 52.97649 | -1.58967 | 24597 ft | 501 kts | 327° |
| 2026-04-30 21:07 | 53.00615 | -1.62030 | 24872 ft | 503 kts | 327° |
| 2026-04-30 21:07 | 53.03611 | -1.65071 | 25143 ft | 506 kts | 329° |
| 2026-04-30 21:08 | 53.06778 | -1.67642 | 25420 ft | 508 kts | 336° |
| 2026-04-30 21:08 | 53.10053 | -1.69895 | 25692 ft | 511 kts | 338° |
| 2026-04-30 21:08 | 53.13331 | -1.72009 | 25980 ft | 513 kts | 339° |
| 2026-04-30 21:08 | 53.16724 | -1.74118 | 26280 ft | 515 kts | 339° |
| 2026-04-30 21:09 | 53.20049 | -1.76155 | 26564 ft | 517 kts | 339° |
| 2026-04-30 21:09 | 53.23435 | -1.78227 | 26876 ft | 519 kts | 339° |
| 2026-04-30 21:09 | 53.26827 | -1.80313 | 27157 ft | 521 kts | 339° |
| 2026-04-30 21:09 | 53.30230 | -1.82420 | 27441 ft | 523 kts | 339° |
| 2026-04-30 21:10 | 53.33647 | -1.84548 | 27728 ft | 525 kts | 339° |
| 2026-04-30 21:10 | 53.37080 | -1.86696 | 28011 ft | 527 kts | 339° |
| 2026-04-30 21:10 | 53.40515 | -1.88852 | 28291 ft | 529 kts | 339° |
| 2026-04-30 21:10 | 53.43962 | -1.91020 | 28554 ft | 530 kts | 339° |
| 2026-04-30 21:11 | 53.47423 | -1.93202 | 28794 ft | 533 kts | 339° |
| 2026-04-30 21:11 | 53.50900 | -1.95398 | 29074 ft | 534 kts | 339° |
| 2026-04-30 21:11 | 53.54370 | -1.97591 | 29462 ft | 532 kts | 339° |
| 2026-04-30 21:11 | 53.57830 | -1.99782 | 29872 ft | 531 kts | 339° |
| 2026-04-30 21:12 | 53.61283 | -2.01972 | 30249 ft | 530 kts | 339° |
| 2026-04-30 21:12 | 53.64730 | -2.04163 | 30570 ft | 529 kts | 338° |
| 2026-04-30 21:12 | 53.68164 | -2.06349 | 30888 ft | 527 kts | 338° |
| 2026-04-30 21:12 | 53.71568 | -2.08519 | 31226 ft | 526 kts | 338° |
| 2026-04-30 21:13 | 53.74981 | -2.10699 | 31557 ft | 524 kts | 338° |
| 2026-04-30 21:13 | 53.78378 | -2.12923 | 31883 ft | 523 kts | 337° |
| 2026-04-30 21:13 | 53.81751 | -2.15215 | 32187 ft | 521 kts | 336° |
| 2026-04-30 21:13 | 53.85104 | -2.17533 | 32471 ft | 520 kts | 336° |
| 2026-04-30 21:14 | 53.88447 | -2.19851 | 32768 ft | 519 kts | 336° |
| 2026-04-30 21:14 | 53.91781 | -2.22160 | 33078 ft | 517 kts | 336° |
| 2026-04-30 21:14 | 53.95108 | -2.24461 | 33360 ft | 515 kts | 336° |
| 2026-04-30 21:14 | 53.98421 | -2.26750 | 33640 ft | 514 kts | 336° |
| 2026-04-30 21:15 | 54.01668 | -2.29287 | 33873 ft | 512 kts | 329° |
| 2026-04-30 21:15 | 54.04757 | -2.32276 | 34141 ft | 510 kts | 328° |
| 2026-04-30 21:15 | 54.10829 | -2.38507 | 34238 ft | 516 kts | 326° |
| 2026-04-30 21:16 | 54.16928 | -2.44958 | 34240 ft | 515 kts | 326° |
| 2026-04-30 21:16 | 54.23007 | -2.51411 | 34235 ft | 514 kts | 326° |
| 2026-04-30 21:17 | 54.29084 | -2.57861 | 34235 ft | 514 kts | 326° |
| 2026-04-30 21:17 | 54.35164 | -2.64322 | 34236 ft | 514 kts | 326° |
| 2026-04-30 21:18 | 54.41242 | -2.70803 | 34235 ft | 514 kts | 326° |
| 2026-04-30 21:18 | 54.47312 | -2.77297 | 34232 ft | 514 kts | 326° |
| 2026-04-30 21:19 | 54.53389 | -2.83824 | 34228 ft | 515 kts | 326° |
| 2026-04-30 21:19 | 54.59467 | -2.90375 | 34231 ft | 515 kts | 326° |
| 2026-04-30 21:20 | 54.65537 | -2.96940 | 34213 ft | 515 kts | 326° |
| 2026-04-30 21:20 | 54.71603 | -3.03525 | 34228 ft | 515 kts | 326° |
| 2026-04-30 21:21 | 54.77654 | -3.10118 | 34206 ft | 514 kts | 326° |
| 2026-04-30 21:22 | 54.86716 | -3.20036 | 34228 ft | 513 kts | 326° |
| 2026-04-30 21:23 | 54.98766 | -3.33306 | 34218 ft | 512 kts | 326° |
| 2026-04-30 21:23 | 55.07788 | -3.43304 | 34215 ft | 512 kts | 326° |
| 2026-04-30 21:24 | 55.13799 | -3.49995 | 34220 ft | 513 kts | 326° |
| 2026-04-30 21:24 | 55.19773 | -3.56670 | 34218 ft | 513 kts | 325° |
| 2026-04-30 21:25 | 55.28798 | -3.66801 | 34218 ft | 514 kts | 325° |
| 2026-04-30 21:26 | 55.37838 | -3.77000 | 34214 ft | 515 kts | 325° |
| 2026-04-30 21:27 | 55.46875 | -3.87258 | 34204 ft | 515 kts | 325° |
| 2026-04-30 21:27 | 55.53140 | -3.93359 | 34202 ft | 517 kts | 338° |
| 2026-04-30 21:28 | 55.63025 | -3.97610 | 34200 ft | 517 kts | 348° |
| 2026-04-30 21:29 | 55.73641 | -4.00948 | 34204 ft | 516 kts | 349° |
| 2026-04-30 21:30 | 55.91268 | -4.06635 | 34205 ft | 514 kts | 348° |
| 2026-04-30 21:31 | 56.08703 | -4.09237 | 34209 ft | 497 kts | 31° |
| 2026-04-30 21:32 | 56.13094 | -4.00831 | 33022 ft | 462 kts | 87° |
| 2026-04-30 21:32 | 56.13125 | -4.00639 | 32979 ft | 461 kts | 88° |
| 2026-04-30 21:33 | 56.14951 | -3.91930 | 32909 ft | 469 kts | 58° |
| 2026-04-30 21:33 | 56.17129 | -3.87568 | 33174 ft | 473 kts | 41° |
| 2026-04-30 21:34 | 56.19900 | -3.84393 | 33436 ft | 474 kts | 25° |
| 2026-04-30 21:34 | 56.26299 | -3.82538 | 33989 ft | 467 kts | 351° |
| 2026-04-30 21:34 | 56.29416 | -3.83995 | 34219 ft | 461 kts | 334° |
| 2026-04-30 21:35 | 56.32168 | -3.86893 | 34236 ft | 458 kts | 317° |
| 2026-04-30 21:35 | 56.34415 | -3.90920 | 34247 ft | 456 kts | 307° |
| 2026-04-30 21:35 | 56.39111 | -3.98699 | 34243 ft | 471 kts | 325° |
| 2026-04-30 21:36 | 56.42042 | -4.01435 | 34242 ft | 479 kts | 337° |
| 2026-04-30 21:36 | 56.45235 | -4.03312 | 34247 ft | 486 kts | 343° |
| 2026-04-30 21:37 | 56.55306 | -4.07208 | 34248 ft | 501 kts | 348° |
| 2026-04-30 21:37 | 56.58751 | -4.08395 | 34247 ft | 506 kts | 347° |
| 2026-04-30 21:37 | 56.65700 | -4.10901 | 34247 ft | 509 kts | 347° |
| 2026-04-30 21:38 | 56.72638 | -4.13528 | 34252 ft | 508 kts | 346° |
| 2026-04-30 21:38 | 56.79465 | -4.16166 | 34252 ft | 507 kts | 346° |
| 2026-04-30 21:39 | 56.86314 | -4.18824 | 34249 ft | 506 kts | 346° |
| 2026-04-30 21:39 | 56.93242 | -4.21517 | 34241 ft | 506 kts | 346° |
| 2026-04-30 21:40 | 57.00129 | -4.24203 | 34240 ft | 506 kts | 346° |
| 2026-04-30 21:40 | 57.06963 | -4.26877 | 34230 ft | 506 kts | 346° |
| 2026-04-30 21:41 | 57.13847 | -4.29578 | 34225 ft | 506 kts | 346° |
| 2026-04-30 21:41 | 57.20731 | -4.32292 | 34216 ft | 506 kts | 346° |
| 2026-04-30 21:42 | 57.27609 | -4.35014 | 34208 ft | 505 kts | 346° |
| 2026-04-30 21:42 | 57.34488 | -4.37746 | 34197 ft | 505 kts | 346° |
| 2026-04-30 21:43 | 57.40244 | -4.40041 | 34196 ft | 505 kts | 346° |
| 2026-04-30 21:43 | 57.48224 | -4.43236 | 34191 ft | 505 kts | 346° |
| 2026-04-30 21:44 | 57.55096 | -4.45997 | 34188 ft | 505 kts | 346° |
| 2026-04-30 21:44 | 57.61959 | -4.48766 | 34188 ft | 505 kts | 346° |
| 2026-04-30 21:45 | 57.68825 | -4.51546 | 34180 ft | 505 kts | 346° |
| 2026-04-30 21:45 | 57.75684 | -4.54334 | 34186 ft | 505 kts | 346° |
| 2026-04-30 21:46 | 57.82544 | -4.57134 | 34188 ft | 504 kts | 345° |
| 2026-04-30 21:46 | 57.89407 | -4.59945 | 34187 ft | 505 kts | 345° |
| 2026-04-30 21:47 | 57.96268 | -4.62768 | 34193 ft | 505 kts | 345° |
| 2026-04-30 21:47 | 58.03124 | -4.65598 | 34181 ft | 505 kts | 345° |
| 2026-04-30 21:48 | 58.09989 | -4.68445 | 34193 ft | 505 kts | 345° |
| 2026-04-30 21:48 | 58.16851 | -4.71300 | 34189 ft | 505 kts | 345° |
| 2026-04-30 21:49 | 58.22553 | -4.73683 | 34193 ft | 505 kts | 345° |
| 2026-04-30 21:49 | 58.29421 | -4.76563 | 34196 ft | 505 kts | 345° |
| 2026-04-30 21:50 | 58.36289 | -4.79454 | 34188 ft | 506 kts | 345° |
| 2026-04-30 21:50 | 58.43160 | -4.82359 | 34196 ft | 506 kts | 345° |
| 2026-04-30 21:51 | 58.50031 | -4.85272 | 34191 ft | 506 kts | 345° |
| 2026-04-30 21:51 | 58.56908 | -4.88201 | 34191 ft | 506 kts | 345° |
| 2026-04-30 21:52 | 58.63788 | -4.91145 | 34193 ft | 507 kts | 345° |
| 2026-04-30 21:52 | 58.70677 | -4.94104 | 34189 ft | 508 kts | 344° |
| 2026-04-30 21:53 | 58.77580 | -4.97081 | 34189 ft | 509 kts | 344° |
| 2026-04-30 21:53 | 58.84494 | -5.00073 | 34188 ft | 510 kts | 344° |
| 2026-04-30 21:54 | 58.91421 | -5.03084 | 34191 ft | 511 kts | 344° |
| 2026-04-30 21:54 | 58.98364 | -5.06115 | 34187 ft | 512 kts | 344° |
| 2026-04-30 21:55 | 59.05310 | -5.09158 | 34189 ft | 512 kts | 343° |
| 2026-04-30 21:55 | 59.12263 | -5.12218 | 34186 ft | 512 kts | 343° |
| 2026-04-30 21:56 | 59.19218 | -5.15291 | 34190 ft | 513 kts | 343° |
| 2026-04-30 21:56 | 59.26129 | -5.18358 | 34190 ft | 513 kts | 343° |
| 2026-04-30 21:57 | 59.33133 | -5.21479 | 34188 ft | 513 kts | 343° |
| 2026-04-30 21:57 | 59.40045 | -5.24573 | 34191 ft | 513 kts | 342° |
| 2026-04-30 21:58 | 59.47008 | -5.27702 | 34188 ft | 513 kts | 342° |
| 2026-04-30 21:58 | 59.54017 | -5.30865 | 34192 ft | 513 kts | 342° |
| 2026-04-30 21:59 | 59.60936 | -5.34002 | 34192 ft | 514 kts | 342° |
| 2026-04-30 22:00 | 59.71385 | -5.38764 | 34191 ft | 514 kts | 342° |
| 2026-04-30 22:00 | 59.81842 | -5.43560 | 34190 ft | 515 kts | 342° |
| 2026-04-30 22:01 | 59.88824 | -5.46780 | 34194 ft | 515 kts | 341° |
| 2026-04-30 22:01 | 59.95809 | -5.50018 | 34195 ft | 516 kts | 341° |
| 2026-04-30 22:02 | 60.02803 | -5.53272 | 34189 ft | 517 kts | 341° |
| 2026-04-30 22:02 | 60.09809 | -5.56542 | 34186 ft | 517 kts | 341° |
| 2026-04-30 22:03 | 60.16824 | -5.59831 | 34183 ft | 518 kts | 341° |
| 2026-04-30 22:03 | 60.23846 | -5.63140 | 34181 ft | 518 kts | 341° |
| 2026-04-30 22:04 | 60.30867 | -5.66462 | 34184 ft | 518 kts | 341° |
| 2026-04-30 22:05 | 60.41403 | -5.71476 | 34184 ft | 519 kts | 341° |
| 2026-04-30 22:05 | 60.48425 | -5.74836 | 34185 ft | 519 kts | 341° |
| 2026-04-30 22:06 | 60.55451 | -5.78214 | 34181 ft | 519 kts | 341° |
| 2026-04-30 22:06 | 60.65979 | -5.83303 | 34178 ft | 519 kts | 340° |
| 2026-04-30 22:07 | 60.72956 | -5.86695 | 34178 ft | 519 kts | 340° |
| 2026-04-30 22:07 | 60.79978 | -5.90124 | 34172 ft | 519 kts | 340° |
| 2026-04-30 22:08 | 60.86995 | -5.93567 | 34174 ft | 519 kts | 340° |
| 2026-04-30 22:08 | 60.94014 | -5.97025 | 34167 ft | 518 kts | 340° |
| 2026-04-30 22:09 | 61.00846 | -6.00943 | 34167 ft | 511 kts | 332° |
| 2026-04-30 22:09 | 61.07433 | -6.06327 | 34161 ft | 509 kts | 330° |
| 2026-04-30 22:10 | 61.13961 | -6.11979 | 34168 ft | 508 kts | 330° |
| 2026-04-30 22:10 | 61.20465 | -6.17688 | 34149 ft | 508 kts | 330° |
| 2026-04-30 22:11 | 61.30217 | -6.26256 | 34154 ft | 507 kts | 330° |
| 2026-04-30 22:12 | 61.36720 | -6.31983 | 34157 ft | 507 kts | 330° |
| 2026-04-30 22:12 | 61.43208 | -6.37720 | 34150 ft | 507 kts | 329° |
| 2026-04-30 22:13 | 61.49699 | -6.43489 | 34147 ft | 506 kts | 329° |
| 2026-04-30 22:13 | 61.56180 | -6.49275 | 34140 ft | 507 kts | 329° |
| 2026-04-30 22:14 | 61.62668 | -6.55094 | 34139 ft | 507 kts | 329° |
| 2026-04-30 22:14 | 61.69149 | -6.60933 | 34131 ft | 507 kts | 329° |
| 2026-04-30 22:15 | 61.75637 | -6.66806 | 34133 ft | 507 kts | 329° |
| 2026-04-30 22:15 | 61.82119 | -6.72699 | 34133 ft | 507 kts | 329° |
| 2026-04-30 22:16 | 61.88560 | -6.78581 | 34131 ft | 508 kts | 329° |
| 2026-04-30 22:17 | 62.01533 | -6.90516 | 34128 ft | 508 kts | 329° |
| 2026-04-30 22:17 | 62.11263 | -6.99536 | 34130 ft | 509 kts | 329° |
| 2026-04-30 22:18 | 62.20992 | -7.08622 | 34134 ft | 509 kts | 329° |
| 2026-04-30 22:19 | 62.30710 | -7.17760 | 34129 ft | 508 kts | 329° |
| 2026-04-30 22:20 | 62.40406 | -7.26947 | 34118 ft | 507 kts | 328° |
| 2026-04-30 22:20 | 62.50079 | -7.36174 | 34103 ft | 507 kts | 328° |
| 2026-04-30 22:21 | 62.56525 | -7.42360 | 34104 ft | 506 kts | 328° |
| 2026-04-30 22:21 | 62.62965 | -7.48569 | 34100 ft | 506 kts | 328° |
| 2026-04-30 22:22 | 62.69404 | -7.54807 | 34098 ft | 506 kts | 328° |
| 2026-04-30 22:22 | 62.75842 | -7.61075 | 34097 ft | 507 kts | 328° |
| 2026-04-30 22:23 | 62.82234 | -7.67327 | 34095 ft | 507 kts | 328° |
| 2026-04-30 22:23 | 62.88669 | -7.73652 | 34091 ft | 507 kts | 328° |
| 2026-04-30 22:24 | 62.95107 | -7.80009 | 34085 ft | 507 kts | 328° |
| 2026-04-30 22:24 | 63.01540 | -7.86394 | 34075 ft | 508 kts | 328° |
| 2026-04-30 22:25 | 63.07977 | -7.92813 | 34082 ft | 508 kts | 328° |
| 2026-04-30 22:25 | 63.14406 | -7.99255 | 34071 ft | 507 kts | 328° |
| 2026-04-30 22:26 | 63.24042 | -8.08969 | 34063 ft | 507 kts | 327° |
| 2026-04-30 22:27 | 63.30452 | -8.15472 | 34065 ft | 507 kts | 327° |
| 2026-04-30 22:27 | 63.40058 | -8.25277 | 34050 ft | 506 kts | 327° |
| 2026-04-30 22:28 | 63.49646 | -8.35135 | 34031 ft | 505 kts | 327° |
| 2026-04-30 22:29 | 63.62406 | -8.48369 | 34026 ft | 505 kts | 327° |
| 2026-04-30 22:31 | 63.84678 | -8.71788 | 34017 ft | 504 kts | 327° |
| 2026-04-30 22:32 | 64.00538 | -8.88719 | 33990 ft | 503 kts | 326° |
| 2026-04-30 22:33 | 64.16364 | -9.05822 | 33988 ft | 503 kts | 326° |
| 2026-04-30 22:35 | 64.32109 | -9.23057 | 33976 ft | 503 kts | 326° |
| 2026-04-30 22:36 | 64.47871 | -9.40533 | 33959 ft | 502 kts | 325° |
| 2026-04-30 22:37 | 64.60465 | -9.54658 | 33949 ft | 503 kts | 325° |
| 2026-04-30 22:38 | 64.73050 | -9.68922 | 33937 ft | 503 kts | 324° |
| 2026-04-30 22:39 | 64.81422 | -9.78491 | 33928 ft | 503 kts | 324° |
| 2026-04-30 22:40 | 65.00389 | -9.99937 | 33913 ft | 513 kts | 331° |
| 2026-04-30 22:41 | 65.17595 | -10.12564 | 33895 ft | 519 kts | 334° |
| 2026-04-30 22:43 | 65.38395 | -10.27524 | 33877 ft | 521 kts | 333° |
| 2026-04-30 22:44 | 65.52258 | -10.37681 | 33870 ft | 520 kts | 333° |
| 2026-04-30 22:45 | 65.73012 | -10.53096 | 33852 ft | 520 kts | 332° |
| 2026-04-30 22:47 | 65.93731 | -10.68749 | 33844 ft | 519 kts | 331° |
| 2026-04-30 22:48 | 66.07531 | -10.79320 | 33830 ft | 519 kts | 331° |
| 2026-04-30 22:49 | 66.28130 | -10.95334 | 33815 ft | 518 kts | 330° |
| 2026-04-30 22:51 | 66.48688 | -11.11579 | 33811 ft | 516 kts | 330° |
| 2026-04-30 22:52 | 66.58936 | -11.19783 | 33803 ft | 515 kts | 329° |
| 2026-04-30 22:53 | 66.72567 | -11.30811 | 33803 ft | 514 kts | 329° |
| 2026-04-30 22:53 | 66.82769 | -11.39156 | 33799 ft | 514 kts | 329° |
| 2026-04-30 22:55 | 66.99775 | -11.53225 | 33799 ft | 514 kts | 329° |
| 2026-04-30 22:56 | 67.13346 | -11.64596 | 33793 ft | 515 kts | 329° |
| 2026-04-30 22:57 | 67.30401 | -11.79085 | 33783 ft | 517 kts | 329° |
| 2026-04-30 22:58 | 67.44082 | -11.90863 | 33779 ft | 519 kts | 329° |
| 2026-04-30 22:59 | 67.64167 | -12.08414 | 33772 ft | 521 kts | 329° |
| 2026-05-01 07:23 | 50.77320 | 161.69539 | 38056 ft | 475 kts | 243° |
| 2026-05-01 07:24 | 50.71728 | 161.56621 | 38062 ft | 475 kts | 243° |
| 2026-05-01 07:24 | 50.67997 | 161.48040 | 38059 ft | 474 kts | 243° |
| 2026-05-01 07:25 | 50.64263 | 161.39476 | 38061 ft | 474 kts | 243° |
| 2026-05-01 07:25 | 50.60526 | 161.30933 | 38060 ft | 473 kts | 243° |
| 2026-05-01 07:26 | 50.56812 | 161.22470 | 38064 ft | 473 kts | 243° |
| 2026-05-01 07:26 | 50.53071 | 161.13975 | 38068 ft | 472 kts | 243° |
| 2026-05-01 07:27 | 50.49327 | 161.05500 | 38068 ft | 472 kts | 243° |
| 2026-05-01 07:27 | 50.45583 | 160.97051 | 38067 ft | 471 kts | 243° |
| 2026-05-01 07:28 | 50.41834 | 160.88619 | 38073 ft | 471 kts | 243° |
| 2026-05-01 07:28 | 50.38084 | 160.80214 | 38078 ft | 470 kts | 243° |
| 2026-05-01 07:29 | 50.34334 | 160.71834 | 38076 ft | 469 kts | 243° |
| 2026-05-01 07:29 | 50.30582 | 160.63475 | 38080 ft | 469 kts | 243° |
| 2026-05-01 07:30 | 50.26831 | 160.55145 | 38093 ft | 468 kts | 243° |
| 2026-05-01 07:30 | 50.23079 | 160.46838 | 38090 ft | 467 kts | 243° |
| 2026-05-01 07:31 | 50.19326 | 160.38557 | 38088 ft | 467 kts | 243° |
| 2026-05-01 07:32 | 50.09912 | 160.17997 | 38093 ft | 465 kts | 242° |
| 2026-05-01 07:33 | 50.04898 | 160.07118 | 38099 ft | 464 kts | 242° |
| 2026-05-01 07:33 | 49.98635 | 159.93583 | 38104 ft | 463 kts | 242° |
| 2026-05-01 07:34 | 49.93594 | 159.82740 | 38107 ft | 462 kts | 242° |
| 2026-05-01 07:35 | 49.89824 | 159.74661 | 38111 ft | 462 kts | 242° |
| 2026-05-01 07:35 | 49.86054 | 159.66604 | 38113 ft | 461 kts | 242° |
| 2026-05-01 07:36 | 49.82280 | 159.58564 | 38115 ft | 461 kts | 243° |
| 2026-05-01 07:36 | 49.78509 | 159.50554 | 38120 ft | 460 kts | 243° |
| 2026-05-01 07:37 | 49.72851 | 159.38582 | 38128 ft | 459 kts | 243° |
| 2026-05-01 07:37 | 49.69071 | 159.30638 | 38120 ft | 459 kts | 242° |
| 2026-05-01 07:38 | 49.65219 | 159.22778 | 38136 ft | 459 kts | 242° |
| 2026-05-01 07:39 | 49.59427 | 159.11065 | 38132 ft | 457 kts | 242° |
| 2026-05-01 07:39 | 49.53685 | 158.99442 | 38131 ft | 456 kts | 242° |
| 2026-05-01 07:40 | 49.49847 | 158.91691 | 38134 ft | 455 kts | 242° |
| 2026-05-01 07:40 | 49.46015 | 158.83974 | 38138 ft | 454 kts | 242° |
| 2026-05-01 07:41 | 49.42182 | 158.76281 | 38138 ft | 453 kts | 242° |
| 2026-05-01 07:42 | 49.36440 | 158.64800 | 38146 ft | 451 kts | 242° |
| 2026-05-01 07:42 | 49.32616 | 158.57180 | 38143 ft | 450 kts | 242° |
| 2026-05-01 07:43 | 49.28797 | 158.49589 | 38148 ft | 449 kts | 242° |
| 2026-05-01 07:43 | 49.23345 | 158.38792 | 38148 ft | 448 kts | 241° |
| 2026-05-01 07:44 | 49.15712 | 158.23752 | 38151 ft | 447 kts | 241° |
| 2026-05-01 07:45 | 49.11901 | 158.16271 | 38156 ft | 446 kts | 241° |
| 2026-05-01 07:45 | 49.08087 | 158.08808 | 38151 ft | 446 kts | 241° |
| 2026-05-01 07:46 | 49.04276 | 158.01370 | 38161 ft | 445 kts | 241° |
| 2026-05-01 07:47 | 48.98555 | 157.90245 | 38161 ft | 444 kts | 241° |
| 2026-05-01 07:47 | 48.94741 | 157.82854 | 38160 ft | 444 kts | 240° |
| 2026-05-01 07:48 | 48.89013 | 157.71791 | 38158 ft | 444 kts | 240° |
| 2026-05-01 07:48 | 48.85187 | 157.64427 | 38161 ft | 444 kts | 240° |
| 2026-05-01 07:49 | 48.79446 | 157.53415 | 38166 ft | 444 kts | 240° |
| 2026-05-01 07:50 | 48.75610 | 157.46083 | 38165 ft | 444 kts | 240° |
| 2026-05-01 07:50 | 48.69877 | 157.35161 | 38162 ft | 444 kts | 240° |
| 2026-05-01 07:51 | 48.66032 | 157.27862 | 38166 ft | 444 kts | 240° |
| 2026-05-01 07:52 | 48.60253 | 157.16927 | 38170 ft | 444 kts | 240° |
| 2026-05-01 07:52 | 48.56398 | 157.09659 | 38164 ft | 444 kts | 240° |
| 2026-05-01 07:53 | 48.50605 | 156.98773 | 38172 ft | 443 kts | 239° |
| 2026-05-01 07:53 | 48.46739 | 156.91533 | 38165 ft | 443 kts | 239° |
| 2026-05-01 07:55 | 48.37064 | 156.73498 | 38167 ft | 442 kts | 239° |
| 2026-05-01 07:56 | 48.27382 | 156.55570 | 38163 ft | 441 kts | 239° |
| 2026-05-01 07:57 | 48.21570 | 156.44865 | 38174 ft | 441 kts | 239° |
| 2026-05-01 07:58 | 48.13811 | 156.30640 | 38163 ft | 441 kts | 239° |
| 2026-05-01 07:59 | 48.06067 | 156.16519 | 38161 ft | 440 kts | 238° |
| 2026-05-01 08:00 | 47.94397 | 155.95376 | 38162 ft | 439 kts | 238° |
| 2026-05-01 08:01 | 47.86619 | 155.81376 | 38159 ft | 438 kts | 238° |
| 2026-05-01 08:02 | 47.80795 | 155.70947 | 38159 ft | 436 kts | 238° |
| 2026-05-01 08:03 | 47.74976 | 155.60555 | 38155 ft | 435 kts | 238° |
| 2026-05-01 08:03 | 47.69161 | 155.50218 | 38149 ft | 434 kts | 238° |
| 2026-05-01 08:04 | 47.61451 | 155.36571 | 38151 ft | 432 kts | 238° |
| 2026-05-01 08:05 | 47.55638 | 155.26326 | 38140 ft | 431 kts | 238° |
| 2026-05-01 08:06 | 47.49884 | 155.16224 | 38138 ft | 429 kts | 238° |
| 2026-05-01 08:07 | 47.42192 | 155.02779 | 38137 ft | 427 kts | 238° |
| 2026-05-01 08:08 | 47.36436 | 154.92760 | 38137 ft | 426 kts | 239° |
| 2026-05-01 08:09 | 47.28775 | 154.79482 | 38131 ft | 424 kts | 239° |
| 2026-05-01 08:09 | 47.24951 | 154.72880 | 38121 ft | 423 kts | 239° |
| 2026-05-01 08:10 | 47.17333 | 154.59776 | 38131 ft | 420 kts | 239° |
| 2026-05-01 08:11 | 47.09757 | 154.46806 | 38116 ft | 417 kts | 239° |
| 2026-05-01 08:12 | 47.04107 | 154.37171 | 38114 ft | 414 kts | 239° |
| 2026-05-01 08:13 | 46.98479 | 154.27609 | 38111 ft | 412 kts | 240° |
| 2026-05-01 08:13 | 46.92878 | 154.18127 | 38106 ft | 409 kts | 240° |
| 2026-05-01 08:14 | 46.89153 | 154.11839 | 38107 ft | 408 kts | 240° |
| 2026-05-01 08:14 | 46.85469 | 154.05633 | 38103 ft | 406 kts | 240° |
| 2026-05-01 08:15 | 46.79920 | 153.96312 | 38101 ft | 404 kts | 240° |
| 2026-05-01 08:16 | 46.76232 | 153.90135 | 38098 ft | 403 kts | 240° |
| 2026-05-01 08:16 | 46.72555 | 153.83991 | 38098 ft | 401 kts | 241° |
| 2026-05-01 08:17 | 46.68891 | 153.77883 | 38098 ft | 400 kts | 241° |
| 2026-05-01 08:17 | 46.65236 | 153.71804 | 38093 ft | 398 kts | 241° |
| 2026-05-01 08:18 | 46.61597 | 153.65764 | 38093 ft | 396 kts | 241° |
| 2026-05-01 08:19 | 46.54359 | 153.53790 | 38091 ft | 393 kts | 241° |
| 2026-05-01 08:19 | 46.50756 | 153.47849 | 38090 ft | 391 kts | 242° |
| 2026-05-01 08:20 | 46.47161 | 153.41933 | 38079 ft | 391 kts | 242° |
| 2026-05-01 08:20 | 46.43566 | 153.36027 | 38083 ft | 390 kts | 242° |
| 2026-05-01 08:21 | 46.39972 | 153.30138 | 38086 ft | 390 kts | 242° |
| 2026-05-01 08:21 | 46.36401 | 153.24300 | 38077 ft | 390 kts | 242° |
| 2026-05-01 08:22 | 46.32807 | 153.18437 | 38085 ft | 389 kts | 242° |
| 2026-05-01 08:22 | 46.29210 | 153.12581 | 38077 ft | 389 kts | 242° |
| 2026-05-01 08:23 | 46.25615 | 153.06741 | 38078 ft | 389 kts | 242° |
| 2026-05-01 08:23 | 46.22598 | 153.01849 | 38338 ft | 389 kts | 242° |
| 2026-05-01 08:23 | 46.20799 | 152.98944 | 38723 ft | 386 kts | 241° |
| 2026-05-01 08:24 | 46.19005 | 152.96068 | 38997 ft | 386 kts | 241° |
| 2026-05-01 08:24 | 46.15404 | 152.90317 | 39080 ft | 391 kts | 240° |
| 2026-05-01 08:25 | 46.11746 | 152.84524 | 39078 ft | 390 kts | 240° |
| 2026-05-01 08:25 | 46.08096 | 152.78756 | 39074 ft | 389 kts | 240° |
| 2026-05-01 08:26 | 46.04467 | 152.73005 | 39084 ft | 387 kts | 240° |
| 2026-05-01 08:26 | 46.00854 | 152.67275 | 39080 ft | 386 kts | 240° |
| 2026-05-01 08:27 | 45.97250 | 152.61565 | 39076 ft | 384 kts | 240° |
| 2026-05-01 08:27 | 45.93656 | 152.55892 | 39075 ft | 383 kts | 240° |
| 2026-05-01 08:28 | 45.90070 | 152.50248 | 39072 ft | 382 kts | 240° |
| 2026-05-01 08:28 | 45.86488 | 152.44621 | 39072 ft | 381 kts | 240° |
| 2026-05-01 08:29 | 45.82910 | 152.39016 | 39071 ft | 380 kts | 239° |
| 2026-05-01 08:29 | 45.79339 | 152.33432 | 39072 ft | 380 kts | 239° |
| 2026-05-01 08:30 | 45.75773 | 152.27869 | 39075 ft | 378 kts | 239° |
| 2026-05-01 08:30 | 45.72213 | 152.22329 | 39070 ft | 377 kts | 239° |
| 2026-05-01 08:31 | 45.68666 | 152.16817 | 39071 ft | 376 kts | 239° |
| 2026-05-01 08:31 | 45.65130 | 152.11334 | 39067 ft | 374 kts | 239° |
| 2026-05-01 08:32 | 45.61606 | 152.05879 | 39069 ft | 373 kts | 239° |
| 2026-05-01 08:32 | 45.58115 | 152.00488 | 39074 ft | 371 kts | 239° |
| 2026-05-01 08:33 | 45.54613 | 151.95088 | 39069 ft | 370 kts | 238° |
| 2026-05-01 08:33 | 45.51123 | 151.89719 | 39071 ft | 369 kts | 238° |
| 2026-05-01 08:34 | 45.47639 | 151.84370 | 39071 ft | 367 kts | 238° |
| 2026-05-01 08:34 | 45.44170 | 151.79052 | 39067 ft | 366 kts | 238° |
| 2026-05-01 08:35 | 45.40710 | 151.73760 | 39065 ft | 364 kts | 238° |
| 2026-05-01 08:35 | 45.37261 | 151.68496 | 39061 ft | 363 kts | 238° |
| 2026-05-01 08:36 | 45.33818 | 151.63249 | 39069 ft | 363 kts | 238° |
| 2026-05-01 08:36 | 45.30376 | 151.58014 | 39066 ft | 362 kts | 238° |
| 2026-05-01 08:37 | 45.26940 | 151.52798 | 39065 ft | 361 kts | 237° |
| 2026-05-01 08:37 | 45.23506 | 151.47595 | 39070 ft | 361 kts | 237° |
| 2026-05-01 08:38 | 45.20074 | 151.42406 | 39067 ft | 360 kts | 237° |
| 2026-05-01 08:38 | 45.16645 | 151.37231 | 39065 ft | 360 kts | 237° |
| 2026-05-01 08:39 | 45.13220 | 151.32071 | 39060 ft | 359 kts | 237° |
| 2026-05-01 08:39 | 45.09796 | 151.26922 | 39064 ft | 359 kts | 237° |
| 2026-05-01 08:40 | 45.04668 | 151.19229 | 39064 ft | 358 kts | 237° |
| 2026-05-01 08:40 | 45.01277 | 151.14154 | 39063 ft | 357 kts | 236° |
| 2026-05-01 08:41 | 44.97862 | 151.09053 | 39062 ft | 357 kts | 236° |
| 2026-05-01 08:41 | 44.94446 | 151.03962 | 39060 ft | 357 kts | 236° |
| 2026-05-01 08:42 | 44.91033 | 150.98881 | 39061 ft | 357 kts | 236° |
| 2026-05-01 08:42 | 44.87618 | 150.93807 | 39062 ft | 356 kts | 236° |
| 2026-05-01 08:43 | 44.84202 | 150.88742 | 39062 ft | 356 kts | 236° |
| 2026-05-01 08:43 | 44.80784 | 150.83683 | 39056 ft | 356 kts | 236° |
| 2026-05-01 08:44 | 44.77364 | 150.78629 | 39058 ft | 357 kts | 236° |
| 2026-05-01 08:44 | 44.73939 | 150.73576 | 39057 ft | 357 kts | 236° |
| 2026-05-01 08:45 | 44.70507 | 150.68525 | 39054 ft | 357 kts | 236° |
| 2026-05-01 08:45 | 44.67070 | 150.63475 | 39057 ft | 358 kts | 235° |
| 2026-05-01 08:46 | 44.63628 | 150.58427 | 39057 ft | 358 kts | 235° |
| 2026-05-01 08:46 | 44.60182 | 150.53382 | 39052 ft | 358 kts | 235° |
| 2026-05-01 08:47 | 44.56727 | 150.48335 | 39052 ft | 359 kts | 235° |
| 2026-05-01 08:47 | 44.53269 | 150.43290 | 39058 ft | 359 kts | 235° |
| 2026-05-01 08:48 | 44.49806 | 150.38249 | 39052 ft | 359 kts | 234° |
| 2026-05-01 08:48 | 44.46338 | 150.33209 | 39048 ft | 359 kts | 234° |
| 2026-05-01 08:49 | 44.42886 | 150.28202 | 39049 ft | 360 kts | 234° |
| 2026-05-01 08:49 | 44.39407 | 150.23165 | 39058 ft | 360 kts | 234° |
| 2026-05-01 08:50 | 44.36872 | 150.19499 | 39055 ft | 360 kts | 234° |
| 2026-05-01 09:05 | 44.33438 | 150.14540 | 39041 ft | 361 kts | 234° |
| 2026-05-01 09:06 | 44.29936 | 150.09495 | 39045 ft | 362 kts | 233° |
| 2026-05-01 09:06 | 44.26426 | 150.04448 | 39040 ft | 362 kts | 233° |
| 2026-05-01 09:07 | 44.22910 | 149.99403 | 39041 ft | 363 kts | 233° |
| 2026-05-01 09:07 | 44.19385 | 149.94352 | 39044 ft | 363 kts | 233° |
| 2026-05-01 09:08 | 44.15855 | 149.89303 | 39039 ft | 364 kts | 233° |
| 2026-05-01 09:08 | 44.12319 | 149.84256 | 39040 ft | 364 kts | 233° |
| 2026-05-01 09:09 | 44.08780 | 149.79212 | 39040 ft | 365 kts | 233° |
| 2026-05-01 09:09 | 44.05233 | 149.74165 | 39038 ft | 365 kts | 233° |
| 2026-05-01 09:10 | 44.01684 | 149.69127 | 39040 ft | 365 kts | 233° |
| 2026-05-01 09:10 | 43.98129 | 149.64088 | 39035 ft | 365 kts | 232° |
| 2026-05-01 09:11 | 43.94573 | 149.59057 | 39036 ft | 365 kts | 232° |
| 2026-05-01 09:11 | 43.91012 | 149.54028 | 39033 ft | 365 kts | 232° |
| 2026-05-01 09:12 | 43.88048 | 149.49850 | 39034 ft | 366 kts | 232° |
| 2026-05-01 09:12 | 43.84476 | 149.44822 | 39029 ft | 366 kts | 232° |
| 2026-05-01 09:13 | 43.80318 | 149.38982 | 39027 ft | 367 kts | 232° |
| 2026-05-01 09:13 | 43.76733 | 149.33957 | 39028 ft | 367 kts | 232° |
| 2026-05-01 09:14 | 43.73725 | 149.29747 | 39029 ft | 367 kts | 232° |
| 2026-05-01 09:14 | 43.70131 | 149.24725 | 39024 ft | 368 kts | 232° |
| 2026-05-01 09:15 | 43.66531 | 149.19705 | 39016 ft | 368 kts | 231° |
| 2026-05-01 09:15 | 43.62927 | 149.14687 | 39024 ft | 368 kts | 231° |
| 2026-05-01 09:16 | 43.59316 | 149.09668 | 39011 ft | 368 kts | 231° |
| 2026-05-01 09:17 | 43.53895 | 149.02151 | 39019 ft | 369 kts | 231° |
| 2026-05-01 09:17 | 43.48465 | 148.94643 | 39008 ft | 369 kts | 231° |
| 2026-05-01 09:18 | 43.43054 | 148.87182 | 39009 ft | 369 kts | 231° |
| 2026-05-01 09:19 | 43.37614 | 148.79701 | 39005 ft | 369 kts | 231° |
| 2026-05-01 09:20 | 43.32168 | 148.72229 | 39003 ft | 369 kts | 231° |
| 2026-05-01 09:21 | 43.24894 | 148.62282 | 38997 ft | 369 kts | 231° |
| 2026-05-01 09:21 | 43.19427 | 148.54831 | 38993 ft | 370 kts | 230° |
| 2026-05-01 09:22 | 43.12125 | 148.44909 | 38986 ft | 370 kts | 230° |
| 2026-05-01 09:23 | 43.06643 | 148.37482 | 38984 ft | 370 kts | 230° |
| 2026-05-01 09:24 | 43.01156 | 148.30069 | 38984 ft | 370 kts | 230° |
| 2026-05-01 09:25 | 42.93837 | 148.20212 | 38980 ft | 370 kts | 230° |
| 2026-05-01 09:26 | 42.88339 | 148.12829 | 38973 ft | 370 kts | 230° |
| 2026-05-01 09:26 | 42.82864 | 148.05497 | 38969 ft | 369 kts | 230° |
| 2026-05-01 09:27 | 42.77362 | 147.98149 | 38962 ft | 369 kts | 229° |
| 2026-05-01 09:28 | 42.73693 | 147.93260 | 38960 ft | 369 kts | 229° |
| 2026-05-01 09:28 | 42.70023 | 147.88377 | 38959 ft | 369 kts | 229° |
| 2026-05-01 09:29 | 42.64521 | 147.81072 | 38953 ft | 368 kts | 229° |
| 2026-05-01 09:30 | 42.59018 | 147.73786 | 38950 ft | 368 kts | 229° |
| 2026-05-01 09:30 | 42.53508 | 147.66509 | 38946 ft | 369 kts | 229° |
| 2026-05-01 09:31 | 42.49833 | 147.61666 | 38939 ft | 369 kts | 229° |
| 2026-05-01 09:32 | 42.44311 | 147.54405 | 38932 ft | 369 kts | 228° |
| 2026-05-01 09:32 | 42.38785 | 147.47158 | 38931 ft | 369 kts | 228° |
| 2026-05-01 09:33 | 42.35096 | 147.42325 | 38923 ft | 369 kts | 228° |
| 2026-05-01 09:34 | 42.29561 | 147.35080 | 38918 ft | 369 kts | 228° |
| 2026-05-01 09:34 | 42.24041 | 147.27876 | 38918 ft | 370 kts | 227° |
| 2026-05-01 09:35 | 42.18492 | 147.20652 | 38910 ft | 370 kts | 227° |
| 2026-05-01 09:36 | 42.14791 | 147.15845 | 38904 ft | 370 kts | 227° |
| 2026-05-01 09:36 | 42.11087 | 147.11042 | 38906 ft | 370 kts | 227° |
| 2026-05-01 09:37 | 42.07381 | 147.06245 | 38899 ft | 370 kts | 227° |
| 2026-05-01 09:37 | 42.01814 | 146.99054 | 38891 ft | 370 kts | 227° |
| 2026-05-01 09:38 | 41.96247 | 146.91881 | 38885 ft | 370 kts | 227° |
| 2026-05-01 09:39 | 41.90678 | 146.84724 | 38882 ft | 370 kts | 226° |
| 2026-05-01 09:39 | 41.86964 | 146.79951 | 38884 ft | 370 kts | 226° |
| 2026-05-01 09:40 | 41.81392 | 146.72803 | 38885 ft | 370 kts | 226° |
| 2026-05-01 09:41 | 41.77671 | 146.68040 | 38865 ft | 370 kts | 226° |
| 2026-05-01 09:41 | 41.72089 | 146.60912 | 38869 ft | 370 kts | 226° |
| 2026-05-01 09:42 | 41.68364 | 146.56165 | 38866 ft | 370 kts | 226° |
| 2026-05-01 09:43 | 41.60915 | 146.46694 | 38850 ft | 370 kts | 225° |
| 2026-05-01 09:43 | 41.57185 | 146.41964 | 38854 ft | 370 kts | 225° |
| 2026-05-01 09:44 | 41.51589 | 146.34884 | 38845 ft | 369 kts | 225° |
| 2026-05-01 09:45 | 41.47857 | 146.30172 | 38838 ft | 369 kts | 225° |
| 2026-05-01 09:45 | 41.42290 | 146.23155 | 38836 ft | 369 kts | 225° |
| 2026-05-01 09:46 | 41.41699 | 146.22411 | 38827 ft | 369 kts | 225° |
| 2026-05-01 09:46 | 41.39075 | 146.19111 | 38827 ft | 369 kts | 225° |
| 2026-05-01 09:47 | 41.35341 | 146.14424 | 38829 ft | 369 kts | 225° |
| 2026-05-01 09:47 | 41.31604 | 146.09740 | 38816 ft | 369 kts | 224° |
| 2026-05-01 09:48 | 41.27866 | 146.05060 | 38816 ft | 369 kts | 224° |
| 2026-05-01 09:48 | 41.24124 | 146.00384 | 38813 ft | 369 kts | 224° |
| 2026-05-01 09:49 | 41.20379 | 145.95714 | 38803 ft | 369 kts | 224° |
| 2026-05-01 09:49 | 41.16631 | 145.91044 | 38799 ft | 370 kts | 224° |
| 2026-05-01 09:50 | 41.12877 | 145.86378 | 38797 ft | 370 kts | 224° |
| 2026-05-01 09:50 | 41.09124 | 145.81721 | 38793 ft | 370 kts | 224° |
| 2026-05-01 09:51 | 41.05368 | 145.77066 | 38788 ft | 370 kts | 223° |
| 2026-05-01 09:51 | 41.01606 | 145.72412 | 38786 ft | 370 kts | 223° |
| 2026-05-01 09:52 | 40.97841 | 145.67761 | 38779 ft | 370 kts | 223° |
| 2026-05-01 09:52 | 40.94075 | 145.63116 | 38777 ft | 370 kts | 223° |
| 2026-05-01 09:53 | 40.90305 | 145.58473 | 38769 ft | 370 kts | 223° |
| 2026-05-01 09:53 | 40.86530 | 145.53830 | 38765 ft | 371 kts | 223° |
| 2026-05-01 09:54 | 40.82750 | 145.49194 | 38759 ft | 371 kts | 222° |
| 2026-05-01 09:54 | 40.78961 | 145.44554 | 38753 ft | 371 kts | 222° |
| 2026-05-01 09:55 | 40.75168 | 145.39916 | 38748 ft | 372 kts | 222° |
| 2026-05-01 09:55 | 40.71370 | 145.35278 | 38742 ft | 372 kts | 222° |
| 2026-05-01 09:56 | 40.67566 | 145.30640 | 38735 ft | 373 kts | 221° |
| 2026-05-01 09:56 | 40.63757 | 145.25999 | 38734 ft | 373 kts | 221° |
| 2026-05-01 09:57 | 40.59940 | 145.21351 | 38730 ft | 374 kts | 221° |
| 2026-05-01 09:57 | 40.56138 | 145.16737 | 38725 ft | 374 kts | 221° |
| 2026-05-01 09:58 | 40.52306 | 145.12101 | 38719 ft | 375 kts | 221° |
| 2026-05-01 09:58 | 40.48463 | 145.07457 | 38713 ft | 375 kts | 221° |
| 2026-05-01 09:59 | 40.44614 | 145.02807 | 38720 ft | 376 kts | 221° |
| 2026-05-01 09:59 | 40.42683 | 145.00480 | 38869 ft | 378 kts | 221° |
| 2026-05-01 09:59 | 40.40748 | 144.98153 | 39086 ft | 377 kts | 221° |
| 2026-05-01 10:00 | 40.38813 | 144.95828 | 39304 ft | 377 kts | 221° |
| 2026-05-01 10:00 | 40.36875 | 144.93499 | 39494 ft | 378 kts | 221° |
| 2026-05-01 10:00 | 40.34934 | 144.91167 | 39653 ft | 379 kts | 221° |
| 2026-05-01 10:00 | 40.32991 | 144.88833 | 39688 ft | 379 kts | 221° |
| 2026-05-01 10:01 | 40.29759 | 144.84954 | 39692 ft | 379 kts | 221° |
| 2026-05-01 10:01 | 40.25862 | 144.80283 | 39680 ft | 380 kts | 221° |
| 2026-05-01 10:02 | 40.21967 | 144.75589 | 39684 ft | 381 kts | 221° |
| 2026-05-01 10:02 | 40.18056 | 144.70897 | 39678 ft | 382 kts | 221° |
| 2026-05-01 10:03 | 40.14118 | 144.66224 | 39665 ft | 383 kts | 220° |
| 2026-05-01 10:03 | 40.10166 | 144.61544 | 39646 ft | 384 kts | 221° |
| 2026-05-01 10:04 | 40.06208 | 144.56854 | 39638 ft | 385 kts | 221° |
| 2026-05-01 10:04 | 40.02243 | 144.52152 | 39638 ft | 385 kts | 221° |
| 2026-05-01 10:05 | 39.98275 | 144.47451 | 39633 ft | 385 kts | 221° |
| 2026-05-01 10:05 | 39.94303 | 144.42754 | 39629 ft | 385 kts | 221° |
| 2026-05-01 10:06 | 39.90332 | 144.38066 | 39618 ft | 386 kts | 221° |
| 2026-05-01 10:06 | 39.86354 | 144.33379 | 39612 ft | 386 kts | 221° |
| 2026-05-01 10:07 | 39.82372 | 144.28692 | 39610 ft | 386 kts | 221° |
| 2026-05-01 10:07 | 39.78394 | 144.24019 | 39604 ft | 386 kts | 221° |
| 2026-05-01 10:08 | 39.72445 | 144.17044 | 39590 ft | 385 kts | 221° |
| 2026-05-01 10:09 | 39.68462 | 144.12383 | 39580 ft | 386 kts | 221° |
| 2026-05-01 10:09 | 39.64470 | 144.07720 | 39572 ft | 386 kts | 221° |
| 2026-05-01 10:10 | 39.60478 | 144.03066 | 39564 ft | 386 kts | 221° |
| 2026-05-01 10:10 | 39.54488 | 143.96096 | 39554 ft | 386 kts | 221° |
| 2026-05-01 10:11 | 39.50493 | 143.91456 | 39549 ft | 385 kts | 221° |
| 2026-05-01 10:11 | 39.46501 | 143.86827 | 39547 ft | 385 kts | 221° |
| 2026-05-01 10:12 | 39.42510 | 143.82206 | 39537 ft | 385 kts | 221° |
| 2026-05-01 10:13 | 39.36524 | 143.75290 | 39531 ft | 384 kts | 221° |
| 2026-05-01 10:13 | 39.32536 | 143.70689 | 39523 ft | 384 kts | 221° |
| 2026-05-01 10:14 | 39.26582 | 143.63837 | 39515 ft | 384 kts | 221° |
| 2026-05-01 10:14 | 39.22594 | 143.59257 | 39509 ft | 384 kts | 221° |
| 2026-05-01 10:15 | 39.18604 | 143.54682 | 39506 ft | 384 kts | 221° |
| 2026-05-01 10:15 | 39.14614 | 143.50113 | 39501 ft | 384 kts | 221° |
| 2026-05-01 10:16 | 39.10623 | 143.45551 | 39496 ft | 384 kts | 221° |
| 2026-05-01 10:17 | 39.04633 | 143.38719 | 39490 ft | 383 kts | 221° |
| 2026-05-01 10:17 | 38.98643 | 143.31901 | 39479 ft | 384 kts | 221° |
| 2026-05-01 10:18 | 38.92472 | 143.25360 | 39473 ft | 384 kts | 214° |
| 2026-05-01 10:19 | 38.87644 | 143.22348 | 39469 ft | 390 kts | 203° |
| 2026-05-01 10:19 | 38.82306 | 143.20777 | 39463 ft | 396 kts | 196° |
| 2026-05-01 10:20 | 38.74120 | 143.19058 | 39460 ft | 398 kts | 196° |
| 2026-05-01 10:20 | 38.68661 | 143.17898 | 39456 ft | 398 kts | 196° |
| 2026-05-01 10:21 | 38.60479 | 143.16092 | 39456 ft | 398 kts | 197° |
| 2026-05-01 10:22 | 38.52289 | 143.14272 | 39453 ft | 399 kts | 197° |
| 2026-05-01 10:23 | 38.44086 | 143.12457 | 39446 ft | 399 kts | 197° |
| 2026-05-01 10:23 | 38.35909 | 143.10653 | 39444 ft | 400 kts | 197° |
| 2026-05-01 10:24 | 38.24936 | 143.08242 | 39442 ft | 400 kts | 197° |
| 2026-05-01 10:25 | 38.13945 | 143.05833 | 39440 ft | 401 kts | 197° |
| 2026-05-01 10:26 | 38.08442 | 143.04629 | 39441 ft | 402 kts | 197° |
| 2026-05-01 10:27 | 37.97422 | 143.02224 | 39437 ft | 402 kts | 197° |
| 2026-05-01 10:28 | 37.89140 | 143.00422 | 39443 ft | 403 kts | 197° |
| 2026-05-01 10:28 | 37.80847 | 142.98621 | 39438 ft | 403 kts | 198° |
| 2026-05-01 10:29 | 37.72544 | 142.96821 | 39443 ft | 404 kts | 198° |
| 2026-05-01 10:30 | 37.61479 | 142.94430 | 39451 ft | 405 kts | 198° |
| 2026-05-01 10:31 | 37.50351 | 142.92033 | 39441 ft | 406 kts | 198° |
| 2026-05-01 10:32 | 37.41983 | 142.90235 | 39448 ft | 407 kts | 198° |
| 2026-05-01 10:33 | 37.30797 | 142.87839 | 39453 ft | 408 kts | 198° |
| 2026-05-01 10:34 | 37.22393 | 142.86050 | 39456 ft | 409 kts | 198° |
| 2026-05-01 10:34 | 37.16783 | 142.84854 | 39450 ft | 409 kts | 198° |
| 2026-05-01 10:35 | 37.08783 | 142.81807 | 39459 ft | 395 kts | 212° |
| 2026-05-01 10:35 | 37.03963 | 142.78551 | 39456 ft | 393 kts | 215° |
| 2026-05-01 10:36 | 36.96853 | 142.73437 | 39453 ft | 393 kts | 215° |
| 2026-05-01 10:37 | 36.92096 | 142.70054 | 39465 ft | 394 kts | 215° |
| 2026-05-01 10:37 | 36.88482 | 142.67505 | 39456 ft | 394 kts | 215° |
| 2026-05-01 10:52 | 36.84535 | 142.64758 | 39451 ft | 397 kts | 218° |
| 2026-05-01 10:53 | 36.78928 | 142.60825 | 39453 ft | 398 kts | 218° |
| 2026-05-01 10:53 | 36.74882 | 142.57979 | 39454 ft | 398 kts | 218° |
| 2026-05-01 10:54 | 36.70048 | 142.54592 | 39454 ft | 399 kts | 218° |
| 2026-05-01 10:54 | 36.65202 | 142.51205 | 39456 ft | 400 kts | 218° |
| 2026-05-01 10:55 | 36.60345 | 142.47819 | 39456 ft | 400 kts | 218° |
| 2026-05-01 10:55 | 36.55480 | 142.44431 | 39460 ft | 401 kts | 218° |
| 2026-05-01 10:56 | 36.50638 | 142.41065 | 39467 ft | 402 kts | 218° |
| 2026-05-01 10:56 | 36.45727 | 142.37654 | 39465 ft | 402 kts | 218° |
| 2026-05-01 10:57 | 36.40844 | 142.34269 | 39463 ft | 403 kts | 218° |
| 2026-05-01 10:57 | 36.35979 | 142.30900 | 39463 ft | 403 kts | 218° |
| 2026-05-01 10:58 | 36.31080 | 142.27514 | 39471 ft | 403 kts | 218° |
| 2026-05-01 10:58 | 36.26171 | 142.24131 | 39473 ft | 404 kts | 218° |
| 2026-05-01 10:59 | 36.21259 | 142.20748 | 39475 ft | 404 kts | 218° |
| 2026-05-01 10:59 | 36.16342 | 142.17360 | 39475 ft | 405 kts | 218° |
| 2026-05-01 11:00 | 36.11483 | 142.13879 | 39479 ft | 400 kts | 223° |
| 2026-05-01 11:00 | 36.07343 | 142.09484 | 39480 ft | 387 kts | 234° |
| 2026-05-01 11:01 | 36.04341 | 142.04070 | 39480 ft | 379 kts | 246° |
| 2026-05-01 11:01 | 36.02343 | 141.98104 | 39501 ft | 372 kts | 264° |
| 2026-05-01 11:01 | 36.02294 | 141.94967 | 39457 ft | 368 kts | 286° |
| 2026-05-01 11:02 | 36.03053 | 141.92846 | 39301 ft | 376 kts | 303° |
| 2026-05-01 11:02 | 36.04552 | 141.89294 | 39028 ft | 367 kts | 278° |
| 2026-05-01 11:02 | 36.04759 | 141.86216 | 39176 ft | 358 kts | 262° |
| 2026-05-01 11:03 | 36.04074 | 141.83281 | 39412 ft | 359 kts | 246° |
| 2026-05-01 11:03 | 36.02159 | 141.77572 | 39434 ft | 365 kts | 257° |
| 2026-05-01 11:03 | 36.01658 | 141.74462 | 39245 ft | 374 kts | 259° |
| 2026-05-01 11:04 | 36.01261 | 141.71268 | 39013 ft | 377 kts | 261° |
| 2026-05-01 11:04 | 36.00899 | 141.68060 | 38785 ft | 377 kts | 261° |
| 2026-05-01 11:04 | 36.00530 | 141.64859 | 38545 ft | 376 kts | 260° |
| 2026-05-01 11:04 | 36.00144 | 141.61667 | 38313 ft | 375 kts | 259° |
| 2026-05-01 11:05 | 35.99742 | 141.58499 | 37830 ft | 372 kts | 259° |
| 2026-05-01 11:05 | 35.99322 | 141.55347 | 37066 ft | 373 kts | 259° |
| 2026-05-01 11:05 | 35.98882 | 141.52167 | 36171 ft | 378 kts | 258° |
| 2026-05-01 11:05 | 35.98430 | 141.48945 | 35266 ft | 384 kts | 258° |
| 2026-05-01 11:06 | 35.97974 | 141.45712 | 34364 ft | 390 kts | 258° |
| 2026-05-01 11:06 | 35.97506 | 141.42390 | 33512 ft | 396 kts | 258° |
| 2026-05-01 11:06 | 35.97032 | 141.39017 | 32810 ft | 402 kts | 258° |
| 2026-05-01 11:07 | 35.96063 | 141.32097 | 32450 ft | 414 kts | 258° |
| 2026-05-01 11:07 | 35.95572 | 141.28596 | 32448 ft | 414 kts | 258° |
| 2026-05-01 11:07 | 35.94734 | 141.21576 | 31914 ft | 412 kts | 263° |
| 2026-05-01 11:08 | 35.94620 | 141.18031 | 30968 ft | 417 kts | 265° |
| 2026-05-01 11:08 | 35.94579 | 141.14421 | 29919 ft | 424 kts | 266° |
| 2026-05-01 11:08 | 35.94594 | 141.07037 | 27863 ft | 433 kts | 267° |
| 2026-05-01 11:09 | 35.94613 | 141.03328 | 27156 ft | 429 kts | 268° |
| 2026-05-01 11:09 | 35.94716 | 140.99666 | 26475 ft | 427 kts | 272° |
| 2026-05-01 11:09 | 35.95267 | 140.96065 | 25823 ft | 428 kts | 282° |
| 2026-05-01 11:10 | 35.97817 | 140.89415 | 24585 ft | 429 kts | 295° |
| 2026-05-01 11:10 | 35.99362 | 140.86272 | 23990 ft | 426 kts | 297° |
| 2026-05-01 11:10 | 36.00949 | 140.83202 | 23397 ft | 422 kts | 298° |
| 2026-05-01 11:10 | 36.02543 | 140.80173 | 22756 ft | 419 kts | 298° |
| 2026-05-01 11:11 | 36.04126 | 140.77160 | 21984 ft | 417 kts | 298° |
| 2026-05-01 11:11 | 36.05694 | 140.74154 | 21210 ft | 415 kts | 298° |
| 2026-05-01 11:11 | 36.07244 | 140.71151 | 20465 ft | 413 kts | 298° |
| 2026-05-01 11:11 | 36.08778 | 140.68159 | 19779 ft | 411 kts | 299° |
| 2026-05-01 11:12 | 36.10297 | 140.65178 | 19073 ft | 409 kts | 299° |
| 2026-05-01 11:12 | 36.11802 | 140.62209 | 18402 ft | 406 kts | 299° |
| 2026-05-01 11:12 | 36.13298 | 140.59254 | 17742 ft | 404 kts | 299° |
| 2026-05-01 11:12 | 36.14788 | 140.56314 | 17022 ft | 402 kts | 299° |
| 2026-05-01 11:13 | 36.16264 | 140.53402 | 16340 ft | 398 kts | 300° |
| 2026-05-01 11:13 | 36.17729 | 140.50508 | 15689 ft | 394 kts | 300° |
| 2026-05-01 11:13 | 36.19176 | 140.47647 | 15030 ft | 391 kts | 300° |
| 2026-05-01 11:13 | 36.19888 | 140.46268 | 14726 ft | 390 kts | 301° |
| 2026-05-01 11:14 | 36.21627 | 140.43691 | 14048 ft | 392 kts | 314° |
| 2026-05-01 11:14 | 36.23806 | 140.41666 | 13415 ft | 392 kts | 323° |
| 2026-05-01 11:14 | 36.26088 | 140.39839 | 12745 ft | 389 kts | 324° |
| 2026-05-01 11:14 | 36.28340 | 140.38072 | 12342 ft | 387 kts | 324° |
| 2026-05-01 11:15 | 36.30651 | 140.36250 | 12331 ft | 390 kts | 324° |
| 2026-05-01 11:15 | 36.32908 | 140.34458 | 12563 ft | 391 kts | 324° |
| 2026-05-01 11:15 | 36.35193 | 140.32636 | 12742 ft | 390 kts | 324° |
| 2026-05-01 11:15 | 36.37348 | 140.30614 | 12596 ft | 386 kts | 313° |
| 2026-05-01 11:16 | 36.38950 | 140.27988 | 12339 ft | 381 kts | 295° |
| 2026-05-01 11:16 | 36.39786 | 140.24907 | 12074 ft | 376 kts | 278° |
| 2026-05-01 11:16 | 36.39832 | 140.21694 | 11429 ft | 372 kts | 260° |
| 2026-05-01 11:16 | 36.39113 | 140.18640 | 10778 ft | 367 kts | 249° |
| 2026-05-01 11:17 | 36.38345 | 140.15631 | 10160 ft | 363 kts | 249° |
| 2026-05-01 11:17 | 36.38040 | 140.14326 | 9870 ft | 362 kts | 253° |
| 2026-05-01 11:17 | 36.37413 | 140.11336 | 9469 ft | 352 kts | 254° |
| 2026-05-01 11:17 | 36.36840 | 140.08448 | 9251 ft | 337 kts | 254° |
| 2026-05-01 11:18 | 36.36251 | 140.05695 | 9004 ft | 323 kts | 250° |
| 2026-05-01 11:18 | 36.35290 | 140.03263 | 8772 ft | 308 kts | 234° |
| 2026-05-01 11:18 | 36.33839 | 140.01396 | 8550 ft | 295 kts | 217° |
| 2026-05-01 11:18 | 36.32065 | 140.00220 | 8364 ft | 286 kts | 201° |
| 2026-05-01 11:19 | 36.30152 | 139.99734 | 8183 ft | 277 kts | 188° |
| 2026-05-01 11:19 | 36.28261 | 139.99582 | 8019 ft | 267 kts | 186° |
| 2026-05-01 11:19 | 36.26452 | 139.99487 | 7971 ft | 253 kts | 186° |
| 2026-05-01 11:19 | 36.24712 | 139.99402 | 7966 ft | 249 kts | 186° |
| 2026-05-01 11:20 | 36.22982 | 139.99312 | 7953 ft | 249 kts | 186° |
| 2026-05-01 11:20 | 36.21253 | 139.99216 | 7953 ft | 249 kts | 186° |
| 2026-05-01 11:20 | 36.19521 | 139.99115 | 7965 ft | 249 kts | 186° |
| 2026-05-01 11:20 | 36.17788 | 139.99009 | 7962 ft | 249 kts | 186° |
| 2026-05-01 11:21 | 36.16058 | 139.98899 | 7956 ft | 249 kts | 187° |
| 2026-05-01 11:21 | 36.14330 | 139.98788 | 7958 ft | 249 kts | 187° |
| 2026-05-01 11:21 | 36.12598 | 139.98675 | 7976 ft | 249 kts | 187° |
| 2026-05-01 11:21 | 36.10866 | 139.98561 | 7966 ft | 249 kts | 187° |
| 2026-05-01 11:22 | 36.09134 | 139.98447 | 7969 ft | 249 kts | 187° |
| 2026-05-01 11:22 | 36.07400 | 139.98351 | 7964 ft | 251 kts | 185° |
| 2026-05-01 11:22 | 36.05651 | 139.98598 | 7974 ft | 256 kts | 172° |
| 2026-05-01 11:22 | 36.03922 | 139.99149 | 7973 ft | 257 kts | 169° |
| 2026-05-01 11:23 | 36.02200 | 139.99760 | 7973 ft | 257 kts | 169° |
| 2026-05-01 11:23 | 36.00484 | 140.00377 | 7971 ft | 257 kts | 169° |
| 2026-05-01 11:23 | 35.98764 | 140.00998 | 7982 ft | 257 kts | 168° |
| 2026-05-01 11:23 | 35.97045 | 140.01619 | 7973 ft | 258 kts | 169° |
| 2026-05-01 11:24 | 35.95322 | 140.02235 | 7972 ft | 258 kts | 169° |
| 2026-05-01 11:24 | 35.93603 | 140.02846 | 7975 ft | 257 kts | 169° |
| 2026-05-01 11:24 | 35.90322 | 140.04008 | 7977 ft | 257 kts | 169° |
| 2026-05-01 11:25 | 35.88599 | 140.04616 | 7954 ft | 256 kts | 169° |
| 2026-05-01 11:25 | 35.85266 | 140.05664 | 7622 ft | 235 kts | 180° |
| 2026-05-01 11:25 | 35.83716 | 140.05423 | 7467 ft | 218 kts | 205° |
| 2026-05-01 11:26 | 35.82488 | 140.04446 | 7267 ft | 207 kts | 227° |
| 2026-05-01 11:26 | 35.81095 | 140.01442 | 6739 ft | 203 kts | 245° |
| 2026-05-01 11:26 | 35.80518 | 139.99858 | 6463 ft | 203 kts | 245° |
| 2026-05-01 11:27 | 35.79856 | 139.98323 | 6175 ft | 203 kts | 238° |
| 2026-05-01 11:27 | 35.78972 | 139.96974 | 5886 ft | 203 kts | 226° |
| 2026-05-01 11:27 | 35.77881 | 139.95864 | 5599 ft | 205 kts | 219° |
| 2026-05-01 11:27 | 35.76716 | 139.94851 | 5309 ft | 205 kts | 216° |
| 2026-05-01 11:28 | 35.75510 | 139.93887 | 4904 ft | 210 kts | 216° |
| 2026-05-01 11:28 | 35.74275 | 139.92840 | 4380 ft | 220 kts | 217° |
| 2026-05-01 11:28 | 35.73115 | 139.91827 | 3689 ft | 227 kts | 216° |
| 2026-05-01 11:29 | 35.70484 | 139.89529 | 2260 ft | 229 kts | 214° |
| 2026-05-01 11:29 | 35.69230 | 139.88481 | 1941 ft | 205 kts | 215° |
| 2026-05-01 11:29 | 35.66909 | 139.86467 | 2134 ft | 195 kts | 214° |
| 2026-05-01 11:30 | 35.65870 | 139.85580 | 2060 ft | 172 kts | 214° |
| 2026-05-01 11:30 | 35.65048 | 139.84870 | 1724 ft | 169 kts | 214° |
| 2026-05-01 11:30 | 35.64110 | 139.84060 | 1449 ft | 158 kts | 216° |
| 2026-05-01 11:30 | 35.63248 | 139.83311 | 1230 ft | 145 kts | 217° |
| 2026-05-01 11:31 | 35.62459 | 139.82627 | 1042 ft | 133 kts | 215° |
| 2026-05-01 11:31 | 35.61735 | 139.82006 | 858 ft | 122 kts | 215° |
| 2026-05-01 11:31 | 35.61047 | 139.81415 | 703 ft | 121 kts | 215° |
| 2026-05-01 11:31 | 35.60357 | 139.80819 | 599 ft | 121 kts | 216° |
| 2026-05-01 11:32 | 35.59690 | 139.80224 | 564 ft | 117 kts | 216° |
| 2026-05-01 11:32 | 35.59016 | 139.79657 | 529 ft | 119 kts | 214° |
| 2026-05-01 11:32 | 35.58346 | 139.79090 | 431 ft | 115 kts | 216° |
| 2026-05-01 11:32 | 35.57715 | 139.78541 | 335 ft | 108 kts | 216° |
| 2026-05-01 11:33 | 35.57105 | 139.78020 | 183 ft | 106 kts | 216° |
| 2026-05-01 11:33 | 35.56510 | 139.77506 | 46 ft | 102 kts | 216° |
| 2026-05-01 11:33 | 35.56146 | 139.77191 | 30 ft | 86 kts | 214° |
| 2026-05-01 11:33 | 35.56005 | 139.77070 | 30 ft | 62 kts | 214° |
| 2026-05-01 11:34 | 35.55897 | 139.76979 | 29 ft | 0 kts | 214° |
| 2026-05-01 11:34 | 35.55874 | 139.76960 | 29 ft | 9 kts | 212° |
| 2026-05-01 11:34 | 35.55783 | 139.76927 | 30 ft | 19 kts | 193° |
| 2026-05-01 11:34 | 35.55657 | 139.76905 | 29 ft | 11 kts | 176° |
| 2026-05-01 11:35 | 35.55586 | 139.76941 | 29 ft | 12 kts | 159° |
| 2026-05-01 11:35 | 35.55510 | 139.76916 | 29 ft | 11 kts | 210° |
| 2026-05-01 11:35 | 35.55445 | 139.76864 | 29 ft | 11 kts | 215° |
| 2026-05-01 11:35 | 35.55382 | 139.76809 | 29 ft | 11 kts | 215° |
| 2026-05-01 11:36 | 35.55317 | 139.76754 | 29 ft | 12 kts | 215° |
| 2026-05-01 11:36 | 35.55241 | 139.76688 | 29 ft | 14 kts | 215° |
| 2026-05-01 11:36 | 35.55157 | 139.76615 | 29 ft | 16 kts | 215° |
| 2026-05-01 11:36 | 35.55062 | 139.76533 | 29 ft | 17 kts | 215° |
| 2026-05-01 11:37 | 35.54959 | 139.76446 | 29 ft | 19 kts | 215° |
| 2026-05-01 11:37 | 35.54861 | 139.76439 | 29 ft | 5 kts | 132° |
| 2026-05-01 11:37 | 35.54860 | 139.76445 | 29 ft | 2 kts | 114° |
| 2026-05-01 11:37 | 35.54861 | 139.76483 | 29 ft | 8 kts | 83° |
| 2026-05-01 11:38 | 35.54864 | 139.76552 | 29 ft | 8 kts | 117° |
| 2026-05-01 11:38 | 35.54819 | 139.76596 | 29 ft | 5 kts | 149° |
| 2026-05-01 11:38 | 35.54813 | 139.76600 | 29 ft | 0 kts | 150° |